Time;durP1;ratioP1;P1;durP2;ratioP2;P2;SDS_P1;SDS_P2;PMS_P1;PMS_P2;Temp;Humidity;BMP_temperature;BMP_pressure;BME280_temperature;BME280_humidity;BME280_pressure;Samples;Min_cycle;Max_cycle;Signal;HPM_P1;HPM_P2
2021/06/08 00:01:31;;;;;;;4.18;2.05;;;15.40;65.90;;;;;;4804649;29;20390;-73
2021/06/08 00:03:58;;;;;;;5.28;1.92;;;15.40;66.00;;;;;;4808101;29;20368;-70
2021/06/08 00:06:26;;;;;;;5.65;2.10;;;15.40;66.00;;;;;;4809444;29;20062;-71
2021/06/08 00:08:55;;;;;;;8.73;2.65;;;15.40;66.20;;;;;;4808885;29;20051;-69
2021/06/08 00:11:24;;;;;;;8.15;2.20;;;15.40;66.20;;;;;;4822253;29;20363;-70
2021/06/08 00:13:52;;;;;;;4.40;2.40;;;15.40;66.10;;;;;;4808030;29;20096;-72
2021/06/08 00:16:20;;;;;;;5.75;1.95;;;15.30;66.10;;;;;;4821899;29;20051;-72
2021/06/08 00:18:48;;;;;;;4.03;2.13;;;15.30;66.20;;;;;;4807741;29;20390;-73
2021/06/08 00:21:16;;;;;;;8.18;2.42;;;15.30;66.40;;;;;;4822745;29;20051;-72
2021/06/08 00:23:44;;;;;;;7.95;2.25;;;15.30;66.60;;;;;;4789694;29;20066;-73
2021/06/08 00:26:13;;;;;;;6.85;2.20;;;15.20;66.70;;;;;;4790718;29;20063;-72
2021/06/08 00:28:41;;;;;;;4.38;2.20;;;15.20;66.80;;;;;;4789814;30;20405;-73
2021/06/08 00:31:09;;;;;;;7.97;1.95;;;15.10;67.00;;;;;;4800987;29;20058;-72
2021/06/08 00:33:37;;;;;;;6.60;2.30;;;15.10;67.20;;;;;;4808610;29;20059;-71
2021/06/08 00:36:06;;;;;;;4.53;2.42;;;15.00;67.20;;;;;;4808081;29;20071;-71
2021/06/08 00:38:34;;;;;;;5.50;2.40;;;15.00;67.40;;;;;;4808529;29;20066;-70
2021/06/08 00:41:02;;;;;;;7.50;2.35;;;15.00;67.50;;;;;;4808499;29;20069;-71
2021/06/08 00:43:31;;;;;;;6.97;2.33;;;15.00;67.50;;;;;;4821479;29;20051;-71
2021/06/08 00:45:59;;;;;;;5.90;2.40;;;15.00;67.60;;;;;;4807497;29;20086;-72
2021/06/08 00:48:28;;;;;;;6.57;2.30;;;14.90;67.60;;;;;;4808650;29;20058;-71
2021/06/08 00:50:56;;;;;;;4.05;2.05;;;14.90;67.70;;;;;;4807345;29;20059;-72
2021/06/08 00:53:24;;;;;;;4.68;2.45;;;14.90;67.70;;;;;;4802587;29;20052;-72
2021/06/08 00:55:53;;;;;;;6.10;2.25;;;14.80;67.80;;;;;;4773504;29;20067;-69
2021/06/08 00:58:20;;;;;;;5.63;2.50;;;14.80;67.80;;;;;;4786849;29;20047;-71
2021/06/08 01:00:49;;;;;;;6.72;2.20;;;14.80;67.90;;;;;;4796648;29;20054;-71
2021/06/08 01:03:19;;;;;;;7.47;2.47;;;14.80;67.90;;;;;;4789058;29;20463;-71
2021/06/08 01:05:46;;;;;;;6.65;2.95;;;14.80;67.90;;;;;;4789950;29;20062;-72
2021/06/08 01:08:14;;;;;;;5.97;2.45;;;14.70;67.90;;;;;;4790593;29;20062;-70
2021/06/08 01:10:42;;;;;;;6.20;2.20;;;14.70;67.80;;;;;;4789520;29;20538;-70
2021/06/08 01:13:10;;;;;;;5.18;2.22;;;14.70;67.80;;;;;;4803921;29;20051;-73
2021/06/08 01:15:38;;;;;;;7.35;2.53;;;14.60;67.80;;;;;;4789893;29;20067;-70
2021/06/08 01:18:06;;;;;;;7.93;2.60;;;14.60;67.70;;;;;;4802498;29;20092;-73
2021/06/08 01:20:36;;;;;;;7.35;2.50;;;14.60;67.70;;;;;;4803810;29;20059;-73
2021/06/08 01:23:04;;;;;;;7.60;2.58;;;14.60;67.80;;;;;;4785839;29;20074;-73
2021/06/08 01:25:32;;;;;;;4.50;2.30;;;14.50;67.90;;;;;;4782544;29;20052;-71
2021/06/08 01:28:01;;;;;;;4.15;2.30;;;14.50;67.90;;;;;;4788991;29;20371;-73
2021/06/08 01:30:30;;;;;;;7.65;2.63;;;14.50;67.80;;;;;;4802587;29;20066;-73
2021/06/08 01:33:00;;;;;;;3.60;2.28;;;14.50;67.80;;;;;;4805437;29;20096;-72
2021/06/08 01:35:29;;;;;;;6.68;2.22;;;14.50;67.90;;;;;;4789405;30;20067;-72
2021/06/08 01:37:57;;;;;;;5.82;2.20;;;14.40;67.90;;;;;;4788306;29;20051;-74
2021/06/08 01:40:28;;;;;;;5.45;2.55;;;14.40;67.80;;;;;;4804210;29;20062;-72
2021/06/08 01:42:56;;;;;;;4.05;2.22;;;14.30;67.90;;;;;;4788618;29;20062;-70
2021/06/08 01:45:24;;;;;;;3.10;2.20;;;14.30;67.80;;;;;;4789646;29;20063;-73
2021/06/08 01:47:52;;;;;;;5.75;2.30;;;14.40;67.80;;;;;;4784143;29;20056;-70
2021/06/08 01:50:21;;;;;;;3.67;2.15;;;14.30;67.70;;;;;;4772056;29;20064;-74
2021/06/08 01:52:54;;;;;;;7.32;2.33;;;14.30;67.80;;;;;;4783784;29;20063;-70
2021/06/08 01:55:30;;;;;;;6.40;2.28;;;14.30;67.80;;;;;;4800718;29;20056;-71
2021/06/08 01:58:16;;;;;;;4.40;2.28;;;14.20;67.90;;;;;;4771218;30;20051;-73
2021/06/08 02:00:50;;;;;;;6.32;2.72;;;14.20;67.90;;;;;;4780389;30;20055;-71
2021/06/08 02:03:31;;;;;;;5.05;2.20;;;14.20;67.90;;;;;;4789230;29;20047;-73
2021/06/08 02:06:18;;;;;;;6.60;2.33;;;14.20;68.00;;;;;;4789030;30;20055;-71
2021/06/08 02:09:30;;;;;;;5.80;2.30;;;14.10;68.00;;;;;;4789911;29;20078;-71
2021/06/08 02:12:06;;;;;;;8.40;2.53;;;14.10;68.10;;;;;;4788787;29;20058;-74
2021/06/08 02:14:41;;;;;;;8.63;2.13;;;14.10;68.00;;;;;;4790214;29;20063;-74
2021/06/08 02:17:18;;;;;;;5.18;2.75;;;14.00;68.00;;;;;;4788805;29;20059;-73
2021/06/08 02:19:48;;;;;;;7.40;2.35;;;14.00;68.00;;;;;;4796063;29;20486;-73
2021/06/08 02:22:22;;;;;;;4.72;2.13;;;14.00;68.10;;;;;;4803720;29;20066;-74
2021/06/08 02:24:52;;;;;;;6.32;2.53;;;14.00;68.10;;;;;;4776518;29;20059;-71
2021/06/08 02:27:23;;;;;;;6.35;2.60;;;13.90;68.10;;;;;;4771856;29;20496;-70
2021/06/08 02:29:54;;;;;;;4.22;2.10;;;13.90;68.10;;;;;;4784789;30;20063;-72
2021/06/08 02:32:24;;;;;;;4.60;2.30;;;13.90;68.20;;;;;;4787075;29;20058;-73
2021/06/08 02:34:53;;;;;;;7.53;2.78;;;13.80;68.30;;;;;;4808149;29;20070;-73
2021/06/08 02:37:23;;;;;;;5.68;2.72;;;13.80;68.30;;;;;;4821383;29;20065;-72
2021/06/08 02:39:52;;;;;;;6.78;2.70;;;13.80;68.30;;;;;;4821698;29;20066;-71
2021/06/08 02:42:21;;;;;;;4.80;2.42;;;13.80;68.40;;;;;;4821665;29;20046;-70
2021/06/08 02:44:50;;;;;;;4.53;2.47;;;13.70;68.50;;;;;;4806699;29;20378;-72
2021/06/08 02:47:20;;;;;;;6.28;2.25;;;13.70;68.50;;;;;;4822114;29;20069;-72
2021/06/08 02:49:49;;;;;;;5.00;2.40;;;13.70;68.60;;;;;;4806619;29;20066;-69
2021/06/08 02:52:19;;;;;;;4.15;2.30;;;13.70;68.60;;;;;;4813754;29;20478;-70
2021/06/08 02:54:51;;;;;;;6.00;2.22;;;13.70;68.70;;;;;;4814705;29;20062;-72
2021/06/08 02:57:21;;;;;;;;;;;13.60;68.70;;;;;;4820969;29;20047;-72
2021/06/08 02:59:51;;;;;;;4.38;2.20;;;13.60;68.70;;;;;;4821162;29;19932;-70
2021/06/08 03:02:23;;;;;;;9.23;2.85;;;13.60;68.60;;;;;;4773812;30;20051;-70
2021/06/08 03:05:10;;;;;;;4.57;1.92;;;13.50;68.60;;;;;;4802208;29;20055;-73
2021/06/08 03:07:42;;;;;;;7.70;2.33;;;13.50;68.80;;;;;;4789856;29;20078;-71
2021/06/08 03:10:15;;;;;;;5.05;2.72;;;13.50;68.90;;;;;;4802808;29;20082;-71
2021/06/08 03:12:48;;;;;;;9.43;2.67;;;13.40;68.80;;;;;;4803696;29;20418;-69
2021/06/08 03:15:17;;;;;;;4.85;2.40;;;13.40;68.80;;;;;;4789950;29;20059;-70
2021/06/08 03:17:45;;;;;;;5.43;2.22;;;13.40;68.80;;;;;;4805634;29;20055;-70
2021/06/08 03:20:24;;;;;;;5.95;2.30;;;13.40;68.80;;;;;;4792455;29;20059;-71
2021/06/08 03:22:56;;;;;;;4.97;1.77;;;13.40;68.80;;;;;;4806293;29;20047;-71
2021/06/08 03:25:25;;;;;;;7.97;1.80;;;13.30;68.70;;;;;;4795542;29;20475;-72
2021/06/08 03:27:54;;;;;;;8.63;2.10;;;13.30;68.70;;;;;;4792837;29;20059;-70
2021/06/08 03:30:25;;;;;;;5.45;2.25;;;13.40;68.70;;;;;;4805753;29;20459;-72
2021/06/08 03:32:55;;;;;;;5.75;2.00;;;13.30;68.70;;;;;;4807009;29;20423;-72
2021/06/08 03:35:26;;;;;;;6.60;2.30;;;13.30;68.60;;;;;;4792648;29;20383;-70
2021/06/08 03:37:56;;;;;;;4.90;2.00;;;13.30;68.60;;;;;;4790510;30;20051;-71
2021/06/08 03:40:26;;;;;;;6.32;2.50;;;13.20;68.70;;;;;;4792563;29;20059;-72
2021/06/08 03:42:54;;;;;;;5.25;1.90;;;13.20;68.80;;;;;;4790724;29;20047;-69
2021/06/08 03:45:23;;;;;;;7.80;2.10;;;13.20;68.90;;;;;;4791749;29;20066;-70
2021/06/08 03:47:55;;;;;;;4.57;1.63;;;13.20;68.90;;;;;;4794186;29;20075;-72
2021/06/08 03:50:24;;;;;;;3.28;1.90;;;13.20;68.90;;;;;;4773449;30;20127;-69
2021/06/08 03:52:51;;;;;;;7.78;2.08;;;13.10;68.90;;;;;;4785940;29;20070;-68
2021/06/08 03:55:25;;;;;;;3.30;1.70;;;13.10;68.90;;;;;;4792050;29;20059;-71
2021/06/08 03:57:56;;;;;;;2.15;1.55;;;13.10;68.80;;;;;;4805527;29;20055;-72
2021/06/08 04:00:26;;;;;;;4.43;2.05;;;13.10;68.80;;;;;;4798308;29;20059;-69
2021/06/08 04:02:56;;;;;;;4.20;2.00;;;13.10;68.80;;;;;;4809208;29;20069;-70
2021/06/08 04:05:24;;;;;;;6.57;2.00;;;13.10;68.80;;;;;;4809767;29;20055;-73
2021/06/08 04:07:52;;;;;;;2.83;1.80;;;13.10;68.70;;;;;;4824148;29;20054;-71
2021/06/08 04:10:22;;;;;;;4.45;2.20;;;13.00;68.80;;;;;;4808874;29;20059;-71
2021/06/08 04:12:50;;;;;;;5.90;2.10;;;13.00;68.80;;;;;;4824133;29;20058;-71
2021/06/08 04:15:19;;;;;;;6.88;1.90;;;13.00;68.80;;;;;;4810277;29;20054;-70
2021/06/08 04:17:47;;;;;;;6.20;2.08;;;12.90;69.00;;;;;;4822641;29;20382;-71
2021/06/08 04:20:16;;;;;;;3.08;1.63;;;13.00;69.10;;;;;;4824282;29;20075;-71
2021/06/08 04:22:46;;;;;;;5.43;2.20;;;12.90;69.20;;;;;;4798638;29;20059;-72
2021/06/08 04:25:17;;;;;;;5.68;2.20;;;12.90;69.40;;;;;;4775135;29;20055;-70
2021/06/08 04:27:46;;;;;;;6.50;2.42;;;13.00;69.50;;;;;;4772772;30;20066;-73
2021/06/08 04:30:16;;;;;;;5.78;2.03;;;13.00;69.60;;;;;;4773248;29;20051;-74
2021/06/08 04:32:47;;;;;;;9.48;2.20;;;13.00;69.80;;;;;;4787452;30;20391;-70
2021/06/08 04:35:17;;;;;;;6.63;2.17;;;13.00;69.90;;;;;;4773637;29;20403;-71
2021/06/08 04:37:46;;;;;;;4.93;1.92;;;13.00;70.00;;;;;;4772724;30;20059;-73
2021/06/08 04:40:16;;;;;;;6.40;2.65;;;13.10;70.10;;;;;;4773901;29;20056;-73
2021/06/08 04:42:48;;;;;;;7.25;2.47;;;13.10;70.20;;;;;;4787788;29;20059;-73
2021/06/08 04:45:16;;;;;;;7.15;2.35;;;13.10;70.30;;;;;;4773479;30;20056;-72
2021/06/08 04:47:44;;;;;;;6.65;2.30;;;13.20;70.30;;;;;;4773999;29;20051;-70
2021/06/08 04:50:14;;;;;;;4.00;2.25;;;13.10;70.30;;;;;;4786582;29;20383;-71
2021/06/08 04:52:43;;;;;;;7.47;2.40;;;13.10;70.50;;;;;;4783978;29;20055;-72
2021/06/08 04:55:12;;;;;;;7.25;3.00;;;13.10;70.60;;;;;;4775302;30;20062;-69
2021/06/08 04:57:40;;;;;;;9.45;2.55;;;13.10;70.70;;;;;;4804182;29;20059;-70
2021/06/08 05:00:12;;;;;;;5.97;2.58;;;13.20;70.80;;;;;;4791435;29;20059;-72
2021/06/08 05:02:51;;;;;;;6.07;2.50;;;13.20;70.90;;;;;;4805121;29;20062;-72
2021/06/08 05:05:24;;;;;;;4.53;2.38;;;13.20;70.90;;;;;;4791376;29;20062;-71
2021/06/08 05:08:13;;;;;;;8.65;3.83;;;13.20;70.90;;;;;;4788478;29;20063;-70
2021/06/08 05:10:58;;;;;;;7.18;3.28;;;13.30;71.10;;;;;;4804186;29;20070;-70
2021/06/08 05:13:29;;;;;;;9.18;2.80;;;13.30;71.00;;;;;;4804672;29;20055;-70
2021/06/08 05:15:59;;;;;;;6.80;2.67;;;13.30;70.90;;;;;;4791275;29;20074;-73
2021/06/08 05:18:28;;;;;;;5.63;3.03;;;13.30;70.90;;;;;;4803831;29;20062;-73
2021/06/08 05:20:57;;;;;;;9.65;2.72;;;13.30;71.00;;;;;;4790358;29;20056;-72
2021/06/08 05:23:26;;;;;;;9.85;3.17;;;13.30;71.00;;;;;;4795002;29;20424;-70
2021/06/08 05:25:54;;;;;;;10.55;3.28;;;13.30;71.10;;;;;;4806939;29;20462;-68
2021/06/08 05:28:23;;;;;;;5.05;3.17;;;13.30;71.20;;;;;;4802340;29;20054;-71
2021/06/08 05:30:52;;;;;;;8.15;2.92;;;13.30;71.20;;;;;;4799518;29;20494;-71
2021/06/08 05:33:23;;;;;;;6.70;3.22;;;13.30;71.40;;;;;;4804362;29;20067;-71
2021/06/08 05:35:53;;;;;;;8.82;3.13;;;13.30;71.50;;;;;;4790596;29;20074;-69
2021/06/08 05:38:33;;;;;;;6.15;2.80;;;13.30;71.50;;;;;;4806218;29;20073;-71
2021/06/08 05:41:07;;;;;;;6.60;2.90;;;13.30;71.60;;;;;;4808513;29;20051;-73
2021/06/08 05:43:36;;;;;;;10.68;3.67;;;13.30;71.70;;;;;;4805010;29;20055;-70
2021/06/08 05:46:05;;;;;;;8.70;3.90;;;13.30;71.70;;;;;;4794636;29;20066;-69
2021/06/08 05:48:36;;;;;;;9.98;3.72;;;13.40;71.60;;;;;;4798798;29;20380;-73
2021/06/08 05:51:06;;;;;;;8.98;4.03;;;13.40;71.70;;;;;;4788553;29;20058;-71
2021/06/08 05:53:41;;;;;;;10.18;4.03;;;13.30;71.80;;;;;;4798081;29;20061;-73
2021/06/08 05:56:10;;;;;;;9.15;3.70;;;13.40;71.90;;;;;;4803013;29;20063;-71
2021/06/08 05:58:38;;;;;;;12.10;5.00;;;13.40;71.90;;;;;;4804227;29;20059;-70
2021/06/08 06:01:10;;;;;;;8.80;4.30;;;13.50;71.80;;;;;;4789835;29;20487;-70
2021/06/08 06:03:40;;;;;;;8.68;4.70;;;13.50;71.70;;;;;;4789285;29;20071;-72
2021/06/08 06:06:11;;;;;;;7.03;4.57;;;13.50;71.60;;;;;;4790333;29;20510;-69
2021/06/08 06:08:39;;;;;;;10.82;5.03;;;13.50;71.60;;;;;;4804352;29;20387;-73
2021/06/08 06:11:08;;;;;;;8.15;4.15;;;13.50;71.60;;;;;;4789177;29;20055;-71
2021/06/08 06:13:43;;;;;;;9.43;4.50;;;13.50;71.60;;;;;;4804011;29;20067;-68
2021/06/08 06:16:11;;;;;;;8.32;4.50;;;13.50;71.60;;;;;;4789263;29;20078;-70
2021/06/08 06:18:39;;;;;;;7.22;4.55;;;13.50;71.60;;;;;;4789432;29;20062;-72
2021/06/08 06:21:08;;;;;;;7.30;4.90;;;13.50;71.70;;;;;;4794224;29;20055;-72
2021/06/08 06:23:36;;;;;;;6.50;4.82;;;13.50;71.80;;;;;;4799256;29;20059;-70
2021/06/08 06:26:05;;;;;;;10.27;5.32;;;13.50;71.90;;;;;;4817629;29;20055;-71
2021/06/08 06:28:33;;;;;;;10.32;5.47;;;13.50;72.00;;;;;;4807820;29;20054;-70
2021/06/08 06:31:07;;;;;;;9.00;5.15;;;13.50;72.00;;;;;;4810714;29;20062;-71
2021/06/08 06:33:35;;;;;;;8.52;5.18;;;13.50;72.00;;;;;;4804029;29;20364;-72
2021/06/08 06:36:04;;;;;;;8.00;5.95;;;13.60;72.10;;;;;;4807785;29;20379;-73
2021/06/08 06:38:35;;;;;;;7.47;5.70;;;13.50;72.20;;;;;;4794876;29;20406;-70
2021/06/08 06:41:06;;;;;;;8.98;5.88;;;13.60;72.30;;;;;;4800699;29;20510;-72
2021/06/08 06:43:36;;;;;;;9.15;5.78;;;13.60;72.30;;;;;;4783348;29;20052;-72
2021/06/08 06:46:04;;;;;;;10.43;5.68;;;13.60;72.30;;;;;;4779202;29;20048;-70
2021/06/08 06:48:32;;;;;;;9.50;5.50;;;13.60;72.40;;;;;;4794391;29;20059;-72
2021/06/08 06:51:00;;;;;;;9.73;6.20;;;13.60;72.50;;;;;;4780377;29;20075;-71
2021/06/08 06:53:29;;;;;;;9.32;5.85;;;13.70;72.50;;;;;;4787829;29;20074;-69
2021/06/08 06:55:57;;;;;;;8.25;5.80;;;13.80;72.50;;;;;;4799521;29;20067;-71
2021/06/08 06:58:25;;;;;;;9.50;5.78;;;13.80;72.50;;;;;;4800610;29;20055;-70
2021/06/08 07:00:54;;;;;;;11.65;5.57;;;13.80;72.50;;;;;;4805599;29;20078;-72
2021/06/08 07:03:30;;;;;;;10.63;5.00;;;13.80;72.60;;;;;;4810412;29;20061;-74
2021/06/08 07:06:00;;;;;;;9.75;5.03;;;13.90;72.60;;;;;;4816118;29;20142;-70
2021/06/08 07:08:31;;;;;;;8.93;5.60;;;14.00;72.50;;;;;;4787688;29;20055;-72
2021/06/08 07:11:00;;;;;;;12.50;5.15;;;14.00;72.50;;;;;;4783543;30;20074;-72
2021/06/08 07:13:29;;;;;;;8.20;5.78;;;14.10;72.60;;;;;;4788487;29;20059;-71
2021/06/08 07:15:57;;;;;;;6.68;5.10;;;14.10;72.50;;;;;;4801915;29;20085;-72
2021/06/08 07:18:26;;;;;;;9.52;5.22;;;14.20;72.30;;;;;;4810105;29;20062;-74
2021/06/08 07:20:54;;;;;;;10.23;4.22;;;14.20;71.60;;;;;;4799551;29;20056;-72
2021/06/08 07:23:24;;;;;;;7.53;4.45;;;14.20;71.00;;;;;;4812696;29;20066;-73
2021/06/08 07:25:52;;;;;;;7.82;4.15;;;14.20;70.60;;;;;;4799106;29;20054;-72
2021/06/08 07:28:21;;;;;;;5.90;4.53;;;14.20;70.40;;;;;;4814355;29;20072;-72
2021/06/08 07:30:50;;;;;;;4.82;4.30;;;14.20;70.20;;;;;;4801564;29;20055;-71
2021/06/08 07:33:40;;;;;;;6.78;5.03;;;14.20;70.20;;;;;;4807941;29;20054;-73
2021/06/08 07:36:09;;;;;;;5.60;5.03;;;14.20;70.00;;;;;;4796926;29;20055;-70
2021/06/08 07:38:47;;;;;;;7.85;5.35;;;14.20;69.90;;;;;;4814303;29;20069;-70
2021/06/08 07:41:45;;;;;;;8.93;5.40;;;14.30;70.10;;;;;;4799276;29;20455;-71
2021/06/08 07:44:24;;;;;;;6.30;5.10;;;14.30;70.00;;;;;;4815118;29;20474;-70
2021/06/08 07:46:53;;;;;;;8.93;5.57;;;14.40;70.00;;;;;;4815599;29;20055;-71
2021/06/08 07:49:22;;;;;;;8.68;5.38;;;14.50;69.90;;;;;;4815281;29;20047;-72
2021/06/08 07:51:51;;;;;;;8.52;5.50;;;14.50;69.80;;;;;;4797770;29;20054;-74
2021/06/08 07:54:22;;;;;;;8.75;5.20;;;14.60;69.80;;;;;;4804682;29;20055;-73
2021/06/08 07:56:55;;;;;;;7.97;5.28;;;14.70;69.60;;;;;;4800692;29;20099;-72
2021/06/08 07:59:22;;;;;;;7.78;5.55;;;14.70;69.40;;;;;;4816781;29;20043;-70
2021/06/08 08:01:50;;;;;;;7.95;6.13;;;14.80;69.40;;;;;;4796174;29;20055;-73
2021/06/08 08:04:20;;;;;;;10.18;5.43;;;14.80;69.50;;;;;;4797849;29;20070;-69
2021/06/08 08:06:52;;;;;;;7.68;5.18;;;14.80;69.60;;;;;;4794535;29;20475;-74
2021/06/08 08:09:20;;;;;;;8.98;5.30;;;14.90;69.60;;;;;;4811540;29;20455;-70
2021/06/08 08:11:52;;;;;;;8.75;5.78;;;15.10;69.30;;;;;;4798524;29;20078;-70
2021/06/08 08:14:23;;;;;;;6.30;5.30;;;15.10;69.30;;;;;;4817285;29;20078;-69
2021/06/08 08:16:52;;;;;;;6.40;5.05;;;15.20;69.10;;;;;;4802338;29;20059;-70
2021/06/08 08:19:20;;;;;;;7.20;4.80;;;15.30;69.00;;;;;;4806662;29;20655;-70
2021/06/08 08:21:49;;;;;;;6.40;5.13;;;15.30;68.90;;;;;;4804320;29;20078;-73
2021/06/08 08:24:18;;;;;;;7.65;5.20;;;15.30;68.90;;;;;;4805783;29;20046;-73
2021/06/08 08:26:46;;;;;;;8.20;4.60;;;15.40;68.90;;;;;;4800967;29;20118;-69
2021/06/08 08:29:14;;;;;;;8.18;4.80;;;15.40;69.10;;;;;;4808191;29;20379;-71
2021/06/08 08:31:42;;;;;;;8.10;4.63;;;15.50;69.00;;;;;;4804574;29;20074;-72
2021/06/08 08:34:10;;;;;;;7.93;4.40;;;15.50;68.70;;;;;;4807758;29;20067;-73
2021/06/08 08:36:39;;;;;;;6.40;4.00;;;15.50;68.50;;;;;;4802215;29;20059;-70
2021/06/08 08:39:09;;;;;;;5.32;3.60;;;15.50;68.30;;;;;;4804007;29;20074;-70
2021/06/08 08:41:41;;;;;;;6.85;3.50;;;15.50;68.10;;;;;;4794550;29;20059;-70
2021/06/08 08:44:10;;;;;;;5.03;3.47;;;15.60;67.90;;;;;;4810724;29;20055;-72
2021/06/08 08:46:39;;;;;;;6.10;3.63;;;15.60;67.40;;;;;;4803025;29;20051;-70
2021/06/08 08:49:08;;;;;;;5.60;3.88;;;15.70;66.90;;;;;;4800081;29;20467;-72
2021/06/08 08:51:38;;;;;;;6.68;4.03;;;15.70;66.60;;;;;;4797406;29;20067;-70
2021/06/08 08:54:06;;;;;;;5.05;4.00;;;15.70;66.60;;;;;;4789884;30;20082;-71
2021/06/08 08:56:37;;;;;;;8.57;3.70;;;15.70;66.80;;;;;;4789447;29;20071;-72
2021/06/08 08:59:07;;;;;;;5.63;3.60;;;15.80;66.90;;;;;;4804554;29;20058;-68
2021/06/08 09:01:37;;;;;;;5.95;3.50;;;15.80;66.90;;;;;;4789397;30;20051;-71
2021/06/08 09:04:06;;;;;;;6.32;3.72;;;16.00;66.80;;;;;;4789484;29;20391;-72
2021/06/08 09:06:34;;;;;;;5.53;3.40;;;16.10;66.50;;;;;;4778796;29;20056;-71
2021/06/08 09:09:07;;;;;;;4.75;3.35;;;16.20;66.20;;;;;;4773637;30;20064;-70
2021/06/08 09:11:38;;;;;;;5.65;3.00;;;16.20;65.90;;;;;;4772792;29;20353;-69
2021/06/08 09:14:08;;;;;;;3.85;2.85;;;16.30;65.80;;;;;;4772069;30;20059;-71
2021/06/08 09:16:37;;;;;;;7.25;3.20;;;16.30;65.60;;;;;;4771747;30;20479;-70
2021/06/08 09:19:06;;;;;;;3.28;2.97;;;16.40;65.50;;;;;;4773235;30;20070;-72
2021/06/08 09:21:38;;;;;;;3.58;2.47;;;16.40;65.10;;;;;;4775168;30;20068;-73
2021/06/08 09:24:21;;;;;;;3.55;2.58;;;16.50;64.90;;;;;;4793559;29;20072;-71
2021/06/08 09:26:54;;;;;;;4.80;2.70;;;16.60;64.50;;;;;;4790091;29;20051;-72
2021/06/08 09:29:38;;;;;;;4.70;2.80;;;16.60;64.00;;;;;;4788246;29;20058;-70
2021/06/08 09:32:21;;;;;;;5.03;2.88;;;16.70;63.70;;;;;;4803051;29;20485;-72
2021/06/08 09:34:58;;;;;;;5.53;2.20;;;16.70;63.70;;;;;;4789462;29;20074;-73
2021/06/08 09:37:34;;;;;;;3.97;1.92;;;16.80;63.30;;;;;;4787526;30;20055;-73
2021/06/08 09:40:27;;;;;;;4.07;1.92;;;16.80;62.70;;;;;;4803130;29;20379;-72
2021/06/08 09:43:10;;;;;;;3.92;1.80;;;16.90;62.00;;;;;;4788481;29;20059;-70
2021/06/08 09:45:43;;;;;;;5.80;2.00;;;16.90;61.70;;;;;;4788811;29;20051;-73
2021/06/08 09:48:13;;;;;;;3.20;1.60;;;17.10;61.50;;;;;;4806633;29;20359;-72
2021/06/08 09:50:47;;;;;;;4.55;1.70;;;17.20;60.60;;;;;;4795397;29;20051;-73
2021/06/08 09:53:24;;;;;;;3.85;1.92;;;17.30;60.00;;;;;;4790073;29;20364;-72
2021/06/08 09:55:54;;;;;;;3.90;1.98;;;17.30;59.90;;;;;;4802529;29;20055;-73
2021/06/08 09:58:24;;;;;;;3.53;2.28;;;17.40;60.00;;;;;;4788082;29;20051;-73
2021/06/08 10:01:19;;;;;;;4.03;1.90;;;17.50;59.90;;;;;;4780588;30;20460;-70
2021/06/08 10:03:50;;;;;;;5.78;2.15;;;17.60;60.30;;;;;;4788683;29;20479;-72
2021/06/08 10:06:27;;;;;;;3.30;1.98;;;17.70;60.10;;;;;;4788569;29;20059;-73
2021/06/08 10:09:01;;;;;;;4.00;2.00;;;17.80;59.70;;;;;;4787671;30;20395;-72
2021/06/08 10:11:33;;;;;;;4.25;1.60;;;17.80;60.00;;;;;;4801727;29;20051;-70
2021/06/08 10:14:14;;;;;;;2.70;1.38;;;17.80;59.30;;;;;;4801927;29;20058;-73
2021/06/08 10:16:42;;;;;;;2.10;1.40;;;17.90;58.80;;;;;;4782756;29;20063;-73
2021/06/08 10:19:12;;;;;;;4.38;1.73;;;17.90;58.30;;;;;;4802223;29;20063;-70
2021/06/08 10:21:48;;;;;;;3.80;1.35;;;18.00;57.80;;;;;;4787945;29;20058;-70
2021/06/08 10:24:18;;;;;;;2.80;1.42;;;18.00;56.50;;;;;;4787933;29;20123;-71
2021/06/08 10:26:51;;;;;;;2.42;1.00;;;18.10;56.10;;;;;;4801267;29;20371;-71
2021/06/08 10:29:24;;;;;;;3.05;1.15;;;18.20;56.10;;;;;;4788000;29;20070;-70
2021/06/08 10:31:55;;;;;;;2.25;1.27;;;18.30;55.30;;;;;;4802830;29;20075;-72
2021/06/08 10:34:38;;;;;;;2.83;1.48;;;18.50;54.80;;;;;;4789409;29;20073;-72
2021/06/08 10:37:08;;;;;;;3.58;1.30;;;18.60;54.60;;;;;;4788382;29;20395;-72
2021/06/08 10:39:36;;;;;;;3.05;1.60;;;18.70;54.10;;;;;;4789247;29;20055;-70
2021/06/08 10:42:05;;;;;;;2.28;1.30;;;18.80;54.10;;;;;;4789324;29;20059;-71
2021/06/08 10:44:35;;;;;;;4.35;1.73;;;18.90;53.90;;;;;;4787677;29;20054;-71
2021/06/08 10:50:03;;;;;;;3.55;1.80;;;19.20;53.80;;;;;;4788588;29;20078;-69
2021/06/08 10:52:45;;;;;;;1.50;1.20;;;19.30;53.80;;;;;;4789065;29;20420;-74
2021/06/08 10:55:15;;;;;;;2.38;1.10;;;19.60;52.00;;;;;;4789126;29;20062;-71
2021/06/08 10:57:45;;;;;;;2.25;1.50;;;19.70;51.00;;;;;;4788166;29;20074;-73
2021/06/08 11:00:24;;;;;;;5.38;1.63;;;19.80;49.70;;;;;;4799623;29;20075;-72
2021/06/08 11:03:02;;;;;;;;;;;19.80;48.20;;;;;;4802360;29;20059;-70
2021/06/08 11:05:57;;;;;;;2.00;1.58;;;19.90;48.40;;;;;;4802511;29;19925;-69
2021/06/08 11:08:58;;;;;;;2.78;1.65;;;20.10;48.30;;;;;;4788859;29;20059;-68
2021/06/08 11:11:46;;;;;;;2.58;1.73;;;20.30;48.20;;;;;;4770708;30;20070;-67
2021/06/08 11:14:30;;;;;;;2.40;1.60;;;20.40;48.40;;;;;;4782273;30;20063;-67
2021/06/08 11:17:07;;;;;;;;;;;20.60;48.40;;;;;;4779731;30;20066;-69
2021/06/08 11:19:43;;;;;;;7.07;2.10;;;20.70;48.60;;;;;;4789322;29;20258;-70
2021/06/08 11:22:13;;;;;;;2.63;1.52;;;20.80;48.70;;;;;;4788163;29;20066;-70
2021/06/08 11:24:43;;;;;;;2.50;1.40;;;20.80;49.00;;;;;;4787738;29;20072;-68
2021/06/08 11:27:11;;;;;;;4.72;1.63;;;20.90;49.40;;;;;;4788601;29;20058;-64
2021/06/08 11:29:56;;;;;;;3.13;1.65;;;21.00;49.20;;;;;;4787239;30;20059;-65
2021/06/08 11:32:31;;;;;;;6.13;1.70;;;21.20;48.70;;;;;;4788218;29;20071;-65
2021/06/08 11:35:17;;;;;;;3.63;1.90;;;21.30;48.20;;;;;;4802665;29;20059;-66
2021/06/08 11:37:49;;;;;;;2.90;1.58;;;21.40;48.20;;;;;;4790058;29;20082;-63
2021/06/08 11:40:45;;;;;;;6.07;1.50;;;21.50;48.20;;;;;;4792499;29;20494;-63
2021/06/08 11:43:14;;;;;;;2.42;1.45;;;21.60;47.50;;;;;;4788255;29;20475;-67
2021/06/08 11:45:44;;;;;;;1.88;1.30;;;21.80;46.40;;;;;;4805988;29;20047;-66
2021/06/08 11:48:58;;;;;;;3.38;1.27;;;21.80;45.40;;;;;;4791297;29;20384;-67
2021/06/08 11:51:34;;;;;;;4.45;1.35;;;21.80;44.40;;;;;;4797136;29;20490;-67
2021/06/08 11:54:05;;;;;;;2.97;1.02;;;21.80;44.50;;;;;;4792309;29;20051;-66
2021/06/08 11:56:48;;;;;;;4.13;1.30;;;21.90;43.90;;;;;;4789952;29;20391;-67
2021/06/08 11:59:25;;;;;;;1.20;1.10;;;22.00;43.10;;;;;;4792532;29;20063;-64
2021/06/08 12:02:05;;;;;;;2.25;1.40;;;22.00;42.20;;;;;;4790814;29;20059;-66
2021/06/08 12:05:07;;;;;;;2.65;1.70;;;22.00;42.10;;;;;;4791344;29;20067;-65
2021/06/08 12:08:02;;;;;;;3.03;1.63;;;22.00;42.50;;;;;;4805722;29;20055;-66
2021/06/08 12:10:43;;;;;;;3.08;1.90;;;22.00;42.70;;;;;;4786349;29;20122;-65
2021/06/08 12:13:13;;;;;;;1.92;1.42;;;22.00;43.10;;;;;;4784288;29;20056;-65
2021/06/08 12:15:44;;;;;;;1.98;1.00;;;21.90;43.30;;;;;;4787246;29;20055;-65
2021/06/08 12:18:24;;;;;;;1.70;1.33;;;21.90;43.30;;;;;;4790385;29;20063;-65
2021/06/08 12:21:11;;;;;;;1.98;1.10;;;22.00;43.80;;;;;;4799325;29;20055;-66
2021/06/08 12:23:40;;;;;;;0.95;0.93;;;22.20;44.30;;;;;;4791490;29;20471;-65
2021/06/08 12:26:22;;;;;;;1.40;0.90;;;22.30;43.60;;;;;;4791162;29;20059;-67
2021/06/08 12:29:10;;;;;;;1.90;0.90;;;22.30;42.30;;;;;;4791296;29;20047;-67
2021/06/08 12:31:38;;;;;;;4.40;1.00;;;22.40;41.60;;;;;;4790050;29;20394;-66
2021/06/08 12:34:16;;;;;;;1.60;0.80;;;22.50;40.80;;;;;;4773942;30;20063;-66
2021/06/08 12:36:46;;;;;;;1.25;0.93;;;22.50;40.10;;;;;;4789605;29;20074;-65
2021/06/08 12:39:17;;;;;;;0.98;0.70;;;22.50;39.80;;;;;;4790435;29;20067;-67
2021/06/08 12:41:46;;;;;;;2.17;0.57;;;22.50;39.60;;;;;;4803626;29;20055;-65
2021/06/08 12:44:29;;;;;;;0.95;0.52;;;22.60;39.30;;;;;;4801273;29;20341;-67
2021/06/08 12:47:01;;;;;;;;;;;22.70;37.90;;;;;;4790099;30;20513;-67
2021/06/08 12:49:38;;;;;;;2.90;0.60;;;22.70;37.30;;;;;;4788090;29;19925;-67
2021/06/08 12:52:08;;;;;;;2.53;0.70;;;22.80;38.00;;;;;;4802540;29;20066;-65
2021/06/08 12:54:39;;;;;;;1.30;0.50;;;22.90;37.90;;;;;;4786930;29;20345;-65
2021/06/08 12:57:28;;;;;;;1.90;0.60;;;23.00;37.60;;;;;;4779350;30;20059;-65
2021/06/08 13:00:08;;;;;;;1.50;0.75;;;23.10;38.00;;;;;;4791852;29;20471;-66
2021/06/08 13:02:37;;;;;;;1.50;0.70;;;23.20;38.20;;;;;;4787966;29;20047;-67
2021/06/08 13:05:10;;;;;;;1.88;0.88;;;23.30;38.00;;;;;;4802906;29;20056;-67
2021/06/08 13:07:42;;;;;;;1.00;0.60;;;23.50;37.70;;;;;;4789767;29;20067;-66
2021/06/08 13:10:21;;;;;;;1.23;0.60;;;23.60;37.60;;;;;;4788100;30;20075;-66
2021/06/08 13:12:51;;;;;;;1.58;0.90;;;23.70;37.60;;;;;;4789869;29;20066;-67
2021/06/08 13:15:30;;;;;;;1.95;0.60;;;23.70;37.80;;;;;;4803791;29;20056;-66
2021/06/08 13:18:12;;;;;;;4.25;0.70;;;23.80;37.70;;;;;;4788826;29;20459;-66